createdAt,value
2019-01-19T00:02:37.967Z,94.39
2019-01-19T00:05:36.170Z,94.33
2019-01-19T00:08:43.749Z,94.44
2019-01-19T00:11:47.314Z,94.36
2019-01-19T00:14:49.928Z,94.49
2019-01-19T00:17:54.846Z,94.37
2019-01-19T00:21:01.535Z,94.30
2019-01-19T00:24:06.194Z,94.24
2019-01-19T00:27:07.460Z,94.23
2019-01-19T00:30:12.977Z,93.99
2019-01-19T00:33:12.868Z,94.06
2019-01-19T00:36:22.342Z,93.98
2019-01-19T00:39:28.262Z,94.08
2019-01-19T00:42:25.155Z,93.98
2019-01-19T00:45:33.844Z,93.75
2019-01-19T00:48:42.180Z,94.01
2019-01-19T00:51:36.055Z,94.07
2019-01-19T00:54:38.215Z,93.91
2019-01-19T00:57:40.040Z,93.95
2019-01-19T01:00:20.530Z,93.81
2019-01-19T01:03:48.547Z,93.92
2019-01-19T01:07:04.478Z,93.84
2019-01-19T01:10:13.009Z,93.75
2019-01-19T01:13:08.421Z,93.66
2019-01-19T01:16:14.605Z,93.81
2019-01-19T01:19:11.663Z,94.06
2019-01-19T01:22:04.416Z,94.34
2019-01-19T01:24:57.258Z,94.22
2019-01-19T01:35:14.034Z,94.32
2019-01-19T01:37:55.750Z,94.25
2019-01-19T01:41:06.687Z,94.27
2019-01-19T01:44:25.615Z,94.28
2019-01-19T01:47:38.917Z,94.30
2019-01-19T01:50:32.041Z,94.50
2019-01-19T01:53:18.368Z,94.35
2019-01-19T01:55:50.637Z,94.35
2019-01-19T01:59:01.086Z,94.43
2019-01-19T02:02:12.617Z,94.31
2019-01-19T02:05:17.373Z,94.32
2019-01-19T02:08:12.784Z,94.41
2019-01-19T02:11:09.604Z,94.21
2019-01-19T02:13:45.722Z,94.29
2019-01-19T02:16:38.451Z,94.23
2019-01-19T02:19:45.343Z,94.34
2019-01-19T02:22:35.147Z,94.30
2019-01-19T02:25:50.201Z,94.25
2019-01-19T02:29:06.732Z,94.17
2019-01-19T02:32:16.497Z,94.21
2019-01-19T02:35:12.462Z,94.22
2019-01-19T02:38:25.784Z,94.18
2019-01-19T02:41:34.897Z,94.26
2019-01-19T02:44:38.847Z,94.28
2019-01-19T02:47:18.074Z,94.30
2019-01-19T02:50:16.665Z,94.28
2019-01-19T02:53:15.681Z,94.34
2019-01-19T02:56:26.534Z,94.46
2019-01-19T02:59:28.877Z,94.27
2019-01-19T03:02:40.214Z,94.15
2019-01-19T03:05:38.377Z,93.95
2019-01-19T03:08:59.658Z,93.92
2019-01-19T03:12:22.263Z,93.75
2019-01-19T03:15:29.232Z,93.74
2019-01-19T03:18:09.003Z,93.85
2019-01-19T03:21:02.414Z,93.78
2019-01-19T03:24:02.177Z,93.85
2019-01-19T03:27:01.722Z,93.73
2019-01-19T03:29:43.673Z,93.57
2019-01-19T03:32:54.114Z,93.69
2019-01-19T03:35:33.610Z,93.45
2019-01-19T03:38:49.897Z,93.36
2019-01-19T03:41:54.227Z,93.39
2019-01-19T03:44:41.713Z,93.37
2019-01-19T03:47:38.602Z,93.41
2019-01-19T03:51:03.695Z,93.12
2019-01-19T03:53:51.483Z,93.38
2019-01-19T03:56:57.211Z,93.42
2019-01-19T04:00:08.927Z,93.55
2019-01-19T04:03:27.938Z,93.44
2019-01-19T04:06:40.667Z,93.18
2019-01-19T04:09:46.336Z,93.06
2019-01-19T04:13:14.977Z,92.79
2019-01-19T04:16:10.313Z,92.56
2019-01-19T04:19:26.730Z,92.70
2019-01-19T04:22:13.695Z,92.86
2019-01-19T04:24:52.510Z,92.78
2019-01-19T04:27:21.641Z,92.77
2019-01-19T04:29:50.749Z,93.03
2019-01-19T04:32:20.059Z,92.95
2019-01-19T04:34:49.204Z,92.76
2019-01-19T04:37:18.317Z,92.65
2019-01-19T04:39:47.481Z,92.94
2019-01-19T04:42:16.601Z,92.95
2019-01-19T04:44:45.740Z,92.81
2019-01-19T04:47:14.978Z,92.95
2019-01-19T04:49:44.160Z,92.94
2019-01-19T04:52:13.320Z,92.58
2019-01-19T04:54:42.450Z,92.49
2019-01-19T04:57:11.613Z,92.25
2019-01-19T04:59:40.724Z,92.12
2019-01-19T05:02:10.088Z,92.17
2019-01-19T05:04:39.206Z,92.17
2019-01-19T05:07:08.410Z,92.05
2019-01-19T05:09:37.752Z,92.47
2019-01-19T05:12:06.844Z,92.57
2019-01-19T05:14:35.985Z,92.56
2019-01-19T05:17:05.297Z,92.73
2019-01-19T05:19:34.409Z,92.82
2019-01-19T05:22:03.576Z,92.80
2019-01-19T05:24:32.739Z,93.45
2019-01-19T05:27:01.896Z,93.69
2019-01-19T05:29:31.063Z,93.83
2019-01-19T05:32:00.463Z,93.72
2019-01-19T05:34:29.549Z,93.67
2019-01-19T05:36:58.717Z,93.76
2019-01-19T05:39:28.026Z,93.73
2019-01-19T05:41:57.159Z,93.65
2019-01-19T05:44:26.266Z,93.78
2019-01-19T05:46:55.535Z,93.61
2019-01-19T05:49:24.614Z,93.80
2019-01-19T05:51:53.750Z,93.86
2019-01-19T05:54:23.166Z,93.99
2019-01-19T05:56:52.296Z,93.89
2019-01-19T05:59:21.514Z,93.83
2019-01-19T06:01:50.847Z,93.81
2019-01-19T06:04:19.897Z,93.80
2019-01-19T06:06:48.975Z,93.84
2019-01-19T06:09:18.424Z,93.83
2019-01-19T06:11:47.555Z,93.81
2019-01-19T06:14:16.606Z,93.84
2019-01-19T06:16:46.037Z,93.78
2019-01-19T06:19:15.400Z,93.61
2019-01-19T06:22:03.040Z,93.51
2019-01-19T06:24:32.133Z,93.47
2019-01-19T06:27:01.223Z,93.30
2019-01-19T06:29:30.520Z,93.44
2019-01-19T06:31:59.624Z,93.48
2019-01-19T06:34:28.765Z,93.39
2019-01-19T06:36:58.003Z,93.18
2019-01-19T06:39:27.124Z,93.40
2019-01-19T06:41:56.281Z,93.30
2019-01-19T06:44:25.540Z,93.66
2019-01-19T06:46:54.708Z,93.79
2019-01-19T06:49:23.885Z,94.08
2019-01-19T06:51:53.210Z,94.20
2019-01-19T06:54:23.073Z,94.20
2019-01-19T06:56:52.202Z,94.25
2019-01-19T06:59:21.508Z,94.21
2019-01-19T07:01:50.569Z,94.15
2019-01-19T07:04:19.697Z,94.24
2019-01-19T07:06:48.973Z,94.29
2019-01-19T07:09:18.036Z,94.34
2019-01-19T07:11:47.363Z,94.38
2019-01-19T07:14:16.646Z,94.56
2019-01-19T07:16:45.748Z,94.60
2019-01-19T07:19:14.894Z,94.79
2019-01-19T07:21:44.142Z,94.81
2019-01-19T07:24:13.258Z,94.93
2019-01-19T07:26:42.345Z,94.97
2019-01-19T07:29:11.647Z,94.99
2019-01-19T07:31:40.799Z,95.03
2019-01-19T07:34:09.863Z,95.08
2019-01-19T07:36:39.104Z,95.08
2019-01-19T07:39:08.512Z,95.14
2019-01-19T07:41:37.620Z,95.20
2019-01-19T07:44:06.890Z,95.28
2019-01-19T07:46:36.442Z,95.34
2019-01-19T07:49:05.625Z,95.42
2019-01-19T07:51:34.967Z,95.55
2019-01-19T07:54:04.054Z,95.64
2019-01-19T07:56:33.239Z,95.56
2019-01-19T07:59:02.575Z,95.59
2019-01-19T08:01:31.762Z,95.58
2019-01-19T08:04:00.876Z,95.54
2019-01-19T08:06:30.154Z,95.54
2019-01-19T08:09:00.704Z,95.52
2019-01-19T08:11:29.787Z,95.53
2019-01-19T08:13:59.081Z,95.54
2019-01-19T08:16:28.190Z,95.49
2019-01-19T08:18:57.320Z,95.44
2019-01-19T08:21:26.657Z,95.46
2019-01-19T08:23:55.722Z,95.43
2019-01-19T08:26:24.784Z,95.41
2019-01-19T08:28:54.054Z,95.39
2019-01-19T08:31:23.175Z,95.38
2019-01-19T08:33:52.265Z,95.39
2019-01-19T08:36:21.581Z,95.35
2019-01-19T08:38:50.667Z,95.48
2019-01-19T08:41:19.785Z,95.48
2019-01-19T08:44:00.559Z,95.53
2019-01-19T08:46:29.715Z,95.53
2019-01-19T08:48:58.803Z,95.55
2019-01-19T08:51:28.078Z,95.52
2019-01-19T08:53:57.294Z,95.51
2019-01-19T08:56:26.412Z,95.50
2019-01-19T08:58:55.647Z,95.42
2019-01-19T09:01:24.723Z,95.40
2019-01-19T09:03:53.898Z,95.35
2019-01-19T09:06:23.135Z,95.33
2019-01-19T09:08:52.197Z,95.27
2019-01-19T09:11:21.327Z,95.27
2019-01-19T09:13:50.645Z,95.29
2019-01-19T09:16:21.778Z,95.33
2019-01-19T09:18:51.044Z,95.29
2019-01-19T09:21:20.254Z,95.34
2019-01-19T09:24:08.390Z,95.29
2019-01-19T09:26:37.452Z,95.15
2019-01-19T09:29:06.602Z,95.16
2019-01-19T09:31:35.869Z,95.15
2019-01-19T09:34:05.189Z,95.09
2019-01-19T09:36:34.290Z,95.06
2019-01-19T09:39:04.745Z,95.04
2019-01-19T09:41:33.860Z,95.00
2019-01-19T09:44:03.021Z,94.96
2019-01-19T09:46:32.247Z,94.80
2019-01-19T09:49:01.299Z,94.68
2019-01-19T09:51:30.391Z,94.74
2019-01-19T09:53:59.680Z,94.34
2019-01-19T09:56:28.792Z,94.50
2019-01-19T09:58:57.926Z,94.46
2019-01-19T10:01:27.393Z,94.41
2019-01-19T10:03:56.423Z,94.37
2019-01-19T10:06:25.554Z,94.43
2019-01-19T10:08:54.938Z,94.42
2019-01-19T10:11:24.275Z,94.19
2019-01-19T10:13:53.385Z,94.09
2019-01-19T10:16:22.655Z,93.90
2019-01-19T10:18:51.776Z,94.06
2019-01-19T10:21:21.118Z,94.15
2019-01-19T10:23:50.330Z,94.22
2019-01-19T10:26:19.397Z,94.15
2019-01-19T10:28:50.320Z,94.01
2019-01-19T10:31:19.649Z,93.77
2019-01-19T10:33:48.747Z,93.58
2019-01-19T10:36:17.896Z,93.40
2019-01-19T10:38:47.069Z,93.03
2019-01-19T10:41:16.168Z,92.48
2019-01-19T10:43:45.319Z,92.50
2019-01-19T10:46:14.535Z,92.82
2019-01-19T10:48:43.663Z,92.19
2019-01-19T10:51:12.756Z,91.88
2019-01-19T10:53:41.997Z,92.23
2019-01-19T10:56:11.126Z,92.37
2019-01-19T10:58:40.363Z,91.77
2019-01-19T11:01:09.590Z,92.17
2019-01-19T11:03:38.722Z,91.97
2019-01-19T11:06:07.813Z,90.66
2019-01-19T11:08:37.209Z,91.15
2019-01-19T11:11:06.398Z,90.76
2019-01-19T11:13:35.478Z,90.44
2019-01-19T11:16:04.833Z,90.39
2019-01-19T11:18:33.946Z,90.43
2019-01-19T11:21:03.059Z,87.96
2019-01-19T11:23:39.610Z,79.28
2019-01-19T11:26:03.222Z,76.63
2019-01-19T11:28:32.330Z,71.71
2019-01-19T11:31:01.621Z,71.53
2019-01-19T11:33:30.709Z,70.32
2019-01-19T11:35:59.789Z,70.14
2019-01-19T11:38:29.182Z,72.36
2019-01-19T11:40:58.313Z,72.48
2019-01-19T11:43:27.370Z,73.51
2019-01-19T11:45:56.472Z,76.82
2019-01-19T11:48:25.597Z,78.60
2019-01-19T11:50:54.801Z,80.72
2019-01-19T11:53:24.034Z,81.83
2019-01-19T11:55:53.213Z,82.39
2019-01-19T11:58:22.261Z,82.96
2019-01-19T12:00:51.564Z,84.22
2019-01-19T12:03:20.690Z,85.16
2019-01-19T12:05:49.818Z,85.57
2019-01-19T12:08:19.907Z,86.50
2019-01-19T12:10:49.084Z,86.53
2019-01-19T12:13:18.203Z,86.98
2019-01-19T12:15:47.395Z,87.50
2019-01-19T12:18:16.499Z,86.80
2019-01-19T12:20:47.655Z,86.16
2019-01-19T12:23:16.753Z,86.53
2019-01-19T12:25:45.889Z,87.12
2019-01-19T12:28:15.032Z,86.20
2019-01-19T12:30:44.822Z,86.66
2019-01-19T12:33:14.094Z,86.94
2019-01-19T12:35:43.343Z,88.37
2019-01-19T12:38:12.479Z,86.18
2019-01-19T12:40:41.646Z,87.80
2019-01-19T12:43:13.784Z,87.04
2019-01-19T12:45:45.520Z,87.45
2019-01-19T12:48:14.605Z,87.32
2019-01-19T12:50:44.004Z,86.71
2019-01-19T12:53:13.112Z,86.76
2019-01-19T12:55:42.263Z,87.38
2019-01-19T12:58:11.546Z,87.65
2019-01-19T13:00:40.647Z,86.51
2019-01-19T13:03:10.018Z,87.18
2019-01-19T13:05:43.154Z,86.97
2019-01-19T13:08:14.494Z,87.57
2019-01-19T13:10:47.690Z,88.32
2019-01-19T13:13:22.669Z,88.93
2019-01-19T13:16:45.188Z,87.99
2019-01-19T13:20:00.100Z,88.15
2019-01-19T13:22:51.933Z,88.17
2019-01-19T13:25:45.927Z,88.91
2019-01-19T13:29:02.243Z,89.49
2019-01-19T13:32:00.489Z,89.81
2019-01-19T13:35:12.822Z,89.44
2019-01-19T13:38:28.666Z,89.37
2019-01-19T13:41:45.280Z,89.52
2019-01-19T13:44:54.068Z,89.91
2019-01-19T13:47:53.134Z,89.85
2019-01-19T13:50:44.379Z,90.13
2019-01-19T13:53:59.365Z,90.37
2019-01-19T13:57:20.489Z,90.34
2019-01-19T14:00:37.423Z,90.83
2019-01-19T14:03:36.265Z,91.01
2019-01-19T14:06:39.369Z,90.97
2019-01-19T14:09:52.260Z,91.18
2019-01-19T14:12:52.402Z,91.15
2019-01-19T14:15:44.440Z,91.29
2019-01-19T14:18:46.479Z,91.12
2019-01-19T14:22:03.918Z,91.50
2019-01-19T14:25:20.043Z,91.79
2019-01-19T14:28:34.920Z,91.80
2019-01-19T14:32:09.160Z,91.84
2019-01-19T14:35:12.432Z,92.08
2019-01-19T14:38:05.309Z,92.37
2019-01-19T14:41:06.369Z,92.50
2019-01-19T14:44:11.034Z,92.67
2019-01-19T14:47:10.680Z,92.59
2019-01-19T14:50:20.533Z,92.78
2019-01-19T14:53:32.417Z,93.10
2019-01-19T14:56:38.629Z,93.10
2019-01-19T14:59:39.847Z,93.24
2019-01-19T15:02:56.027Z,93.43
2019-01-19T15:06:10.629Z,93.39
2019-01-19T15:09:04.813Z,93.48
2019-01-19T15:12:04.487Z,93.43
2019-01-19T15:15:10.946Z,93.79
2019-01-19T15:18:33.471Z,94.13
2019-01-19T15:21:31.550Z,94.04
2019-01-19T15:24:37.843Z,94.10
2019-01-19T15:27:46.946Z,94.09
2019-01-19T15:30:39.988Z,94.39
2019-01-19T15:33:19.995Z,94.42
2019-01-19T15:36:13.099Z,94.35
2019-01-19T15:39:12.848Z,94.23
2019-01-19T15:42:12.459Z,94.40
2019-01-19T15:45:38.423Z,94.39
2019-01-19T15:48:50.946Z,94.59
2019-01-19T15:52:10.002Z,94.53
2019-01-19T15:55:11.036Z,94.71
2019-01-19T15:58:15.123Z,94.75
2019-01-19T16:01:12.895Z,94.93
2019-01-19T16:04:15.376Z,95.05
2019-01-19T16:07:25.540Z,95.10
2019-01-19T16:10:37.958Z,95.18
2019-01-19T16:13:44.702Z,95.22
2019-01-19T16:17:22.251Z,95.19
2019-01-19T16:20:24.327Z,95.18
2019-01-19T16:23:37.991Z,95.19
2019-01-19T16:26:26.055Z,95.20
2019-01-19T16:29:51.446Z,95.21
2019-01-19T16:33:04.560Z,95.23
2019-01-19T16:36:26.968Z,95.22
2019-01-19T16:39:35.136Z,94.98
2019-01-19T16:42:25.018Z,94.42
2019-01-19T16:45:26.710Z,93.78
2019-01-19T16:48:30.570Z,93.48
2019-01-19T16:51:42.087Z,93.11
2019-01-19T16:54:38.848Z,92.30
2019-01-19T16:57:51.217Z,92.66
2019-01-19T17:00:52.087Z,92.94
2019-01-19T17:03:36.649Z,93.04
2019-01-19T17:07:01.868Z,92.93
2019-01-19T17:10:02.990Z,92.78
2019-01-19T17:13:08.998Z,92.65
2019-01-19T17:15:50.408Z,92.47
2019-01-19T17:18:49.814Z,92.46
2019-01-19T17:22:06.046Z,92.48
2019-01-19T17:25:10.727Z,92.57
2019-01-19T17:27:52.522Z,92.46
2019-01-19T17:30:57.398Z,92.51
2019-01-19T17:34:04.365Z,92.31
2019-01-19T17:36:57.298Z,92.03
2019-01-19T17:40:07.505Z,91.90
2019-01-19T17:43:18.626Z,92.26
2019-01-19T17:46:19.622Z,92.12
2019-01-19T17:49:50.825Z,92.24
2019-01-19T17:52:58.277Z,92.17
2019-01-19T17:55:57.348Z,91.99
2019-01-19T17:59:12.596Z,91.84
2019-01-19T18:02:22.789Z,92.10
2019-01-19T18:05:44.176Z,91.85
2019-01-19T18:08:50.080Z,91.50
2019-01-19T18:12:00.381Z,91.56
2019-01-19T18:15:28.505Z,91.36
2019-01-19T18:18:41.616Z,91.40
2019-01-19T18:21:53.896Z,91.37
2019-01-19T18:24:41.600Z,91.34
2019-01-19T18:27:39.308Z,91.31
2019-01-19T18:30:49.029Z,91.23
2019-01-19T18:34:04.800Z,90.83
2019-01-19T18:37:05.275Z,90.96
2019-01-19T18:39:56.567Z,91.17
2019-01-19T18:42:56.780Z,91.17
2019-01-19T18:46:06.479Z,91.12
2019-01-19T18:49:14.126Z,90.96
2019-01-19T18:52:20.238Z,91.23
2019-01-19T18:55:28.312Z,91.37
2019-01-19T18:58:32.782Z,91.19
2019-01-19T19:02:01.815Z,91.11
2019-01-19T19:04:51.650Z,90.85
2019-01-19T19:08:01.881Z,91.06
2019-01-19T19:11:12.378Z,90.59
2019-01-19T19:14:08.086Z,90.84
2019-01-19T19:17:17.921Z,91.03
2019-01-19T19:20:12.291Z,91.35
2019-01-19T19:23:21.454Z,91.31
2019-01-19T19:26:29.978Z,91.48
2019-01-19T19:29:27.408Z,91.26
2019-01-19T19:32:06.915Z,91.16
2019-01-19T19:35:24.458Z,91.18
2019-01-19T19:38:55.622Z,91.39
2019-01-19T19:42:08.617Z,91.46
2019-01-19T19:45:14.573Z,91.63
2019-01-19T19:48:13.871Z,91.63
2019-01-19T19:51:57.471Z,91.27
2019-01-19T19:54:27.435Z,91.13
2019-01-19T19:56:56.676Z,91.04
2019-01-19T19:59:25.865Z,91.30
2019-01-19T20:01:55.220Z,91.27
2019-01-19T20:04:24.351Z,91.31
2019-01-19T20:06:53.560Z,91.34
2019-01-19T20:09:22.929Z,91.24
2019-01-19T20:11:52.406Z,90.92
2019-01-19T20:14:21.613Z,90.88
2019-01-19T20:16:50.992Z,90.95
2019-01-19T20:19:20.149Z,90.63
2019-01-19T20:21:49.337Z,90.80
2019-01-19T20:24:18.504Z,90.94
2019-01-19T20:26:47.611Z,90.50
2019-01-19T20:29:16.783Z,90.63
2019-01-19T20:31:45.946Z,90.54
2019-01-19T20:34:15.036Z,90.67
2019-01-19T20:36:44.225Z,90.26
2019-01-19T20:39:13.585Z,90.54
2019-01-19T20:41:42.708Z,90.52
2019-01-19T20:44:11.837Z,90.40
2019-01-19T20:46:40.934Z,90.58
2019-01-19T20:49:10.072Z,90.72
2019-01-19T20:51:39.318Z,90.85
2019-01-19T20:54:08.560Z,90.83
2019-01-19T20:56:37.859Z,90.74
2019-01-19T20:59:07.123Z,90.92
2019-01-19T21:01:36.192Z,91.04
2019-01-19T21:04:05.327Z,90.98
2019-01-19T21:06:34.555Z,90.89
2019-01-19T21:09:06.904Z,90.66
2019-01-19T21:11:36.097Z,90.83
2019-01-19T21:14:05.210Z,90.45
2019-01-19T21:16:34.581Z,90.54
2019-01-19T21:19:03.697Z,90.41
2019-01-19T21:21:33.012Z,90.56
2019-01-19T21:24:02.399Z,90.73
2019-01-19T21:26:31.483Z,90.88
2019-01-19T21:29:00.538Z,91.03
2019-01-19T21:31:29.993Z,90.93
2019-01-19T21:33:59.045Z,91.06
2019-01-19T21:36:28.184Z,90.94
2019-01-19T21:38:57.528Z,90.92
2019-01-19T21:41:26.613Z,90.87
2019-01-19T21:43:55.739Z,90.90
2019-01-19T21:46:25.050Z,91.10
2019-01-19T21:48:54.234Z,91.02
2019-01-19T21:51:23.347Z,91.21
2019-01-19T21:53:52.693Z,91.01
2019-01-19T21:56:21.805Z,91.06
2019-01-19T21:58:51.009Z,91.00
2019-01-19T22:01:20.271Z,91.06
2019-01-19T22:03:50.248Z,91.24
2019-01-19T22:06:19.319Z,91.17
2019-01-19T22:08:48.543Z,91.18
2019-01-19T22:11:17.828Z,91.21
2019-01-19T22:13:46.884Z,91.27
2019-01-19T22:16:16.124Z,91.31
2019-01-19T22:18:45.337Z,91.55
2019-01-19T22:21:14.504Z,91.85
2019-01-19T22:23:43.781Z,91.95
2019-01-19T22:26:14.706Z,92.32
2019-01-19T22:28:43.785Z,92.22
2019-01-19T22:31:13.064Z,92.50
2019-01-19T22:33:42.220Z,92.47
2019-01-19T22:36:11.331Z,92.75
2019-01-19T22:38:40.480Z,93.19
2019-01-19T22:41:09.767Z,93.43
2019-01-19T22:43:38.880Z,93.28
2019-01-19T22:46:08.180Z,93.42
2019-01-19T22:48:37.352Z,93.47
2019-01-19T22:51:11.181Z,93.46
2019-01-19T22:53:37.167Z,93.74
2019-01-19T22:56:06.251Z,93.85
2019-01-19T22:58:35.379Z,93.94
2019-01-19T23:01:32.221Z,93.73
2019-01-19T23:04:01.363Z,93.78
2019-01-19T23:06:30.533Z,93.81
2019-01-19T23:08:59.695Z,93.85
2019-01-19T23:11:33.851Z,93.81
2019-01-19T23:14:00.045Z,94.19
2019-01-19T23:16:29.252Z,94.06
2019-01-19T23:18:58.375Z,94.13
2019-01-19T23:21:27.482Z,94.34
2019-01-19T23:23:56.665Z,94.34
2019-01-19T23:26:26.231Z,94.45
2019-01-19T23:28:55.441Z,94.53
2019-01-19T23:31:24.545Z,94.60
2019-01-19T23:33:53.700Z,94.96
2019-01-19T23:36:23.009Z,95.04
2019-01-19T23:38:52.156Z,95.31
2019-01-19T23:41:21.250Z,95.27
2019-01-19T23:43:50.420Z,95.20
2019-01-19T23:46:19.519Z,95.20
2019-01-19T23:48:48.644Z,95.15
2019-01-19T23:51:17.778Z,95.14
2019-01-19T23:53:46.880Z,95.01
2019-01-19T23:56:16.039Z,95.06
2019-01-19T23:58:45.311Z,95.03
